createdAt,value
2023-01-31T00:01:08.577Z,4.63
2023-01-31T00:03:36.439Z,4.60
2023-01-31T00:06:17.683Z,3.67
2023-01-31T00:08:45.127Z,4.60
2023-01-31T00:11:12.554Z,5.13
2023-01-31T00:13:39.776Z,4.87
2023-01-31T00:16:07.463Z,5.00
2023-01-31T00:18:34.902Z,5.20
2023-01-31T00:21:12.646Z,3.80
2023-01-31T00:23:40.403Z,4.33
2023-01-31T00:26:33.652Z,5.10
2023-01-31T00:29:02.038Z,4.90
2023-01-31T00:31:30.022Z,4.37
2023-01-31T00:33:57.865Z,5.27
2023-01-31T00:36:29.595Z,4.90
2023-01-31T00:38:57.820Z,5.13
2023-01-31T00:41:25.605Z,4.90
2023-01-31T00:43:52.848Z,4.97
2023-01-31T00:46:23.847Z,5.07
2023-01-31T00:48:51.316Z,4.93
2023-01-31T00:51:18.753Z,5.40
2023-01-31T00:53:45.965Z,5.10
2023-01-31T00:56:14.327Z,5.97
2023-01-31T00:58:41.778Z,4.40
2023-01-31T01:01:19.154Z,5.10
2023-01-31T01:03:46.647Z,5.53
2023-01-31T01:06:14.329Z,5.07
2023-01-31T01:08:42.450Z,5.07
2023-01-31T01:11:11.625Z,4.90
2023-01-31T01:13:38.939Z,4.57
2023-01-31T01:16:06.960Z,4.83
2023-01-31T01:18:35.463Z,5.33
2023-01-31T01:21:09.733Z,4.90
2023-01-31T01:23:37.445Z,5.17
2023-01-31T01:26:05.346Z,4.63
2023-01-31T01:28:36.578Z,4.90
2023-01-31T01:31:07.660Z,5.03
2023-01-31T01:33:35.167Z,5.37
2023-01-31T01:36:06.643Z,5.40
2023-01-31T01:38:37.147Z,4.93
2023-01-31T01:41:05.548Z,4.90
2023-01-31T01:43:46.326Z,5.07
2023-01-31T01:46:33.710Z,5.03
2023-01-31T01:49:03.674Z,4.50
2023-01-31T01:51:32.984Z,5.20
2023-01-31T01:54:01.260Z,4.90
2023-01-31T01:56:32.543Z,4.63
2023-01-31T01:59:02.866Z,5.67
2023-01-31T02:01:32.787Z,5.30
2023-01-31T02:04:00.105Z,5.10
2023-01-31T02:06:27.269Z,5.17
2023-01-31T02:08:55.175Z,4.97
2023-01-31T02:11:22.681Z,5.43
2023-01-31T02:13:51.148Z,5.83
2023-01-31T02:16:18.371Z,5.47
2023-01-31T02:18:46.543Z,5.73
2023-01-31T02:21:25.959Z,5.77
2023-01-31T02:24:16.747Z,6.10
2023-01-31T02:27:05.418Z,5.63
2023-01-31T02:29:44.832Z,5.87
2023-01-31T02:32:30.163Z,5.67
2023-01-31T02:35:32.560Z,5.13
2023-01-31T02:38:17.781Z,5.40
2023-01-31T02:40:51.536Z,5.60
2023-01-31T02:43:21.597Z,5.13
2023-01-31T02:46:21.405Z,5.63
2023-01-31T02:48:48.533Z,4.83
2023-01-31T02:51:20.571Z,5.50
2023-01-31T02:53:54.640Z,5.23
2023-01-31T02:56:24.898Z,4.83
2023-01-31T02:58:55.143Z,4.80
2023-01-31T03:01:25.406Z,4.63
2023-01-31T03:03:53.168Z,4.60
2023-01-31T03:06:33.407Z,4.80
2023-01-31T03:09:09.512Z,5.37
2023-01-31T03:11:41.549Z,5.10
2023-01-31T03:14:20.719Z,5.30
2023-01-31T03:17:18.715Z,4.77
2023-01-31T03:19:50.076Z,5.47
2023-01-31T03:22:20.645Z,5.33
2023-01-31T03:24:48.609Z,5.60
2023-01-31T03:27:16.819Z,5.97
2023-01-31T03:29:44.440Z,7.27
2023-01-31T03:32:15.090Z,6.73
2023-01-31T03:34:42.259Z,7.03
2023-01-31T03:37:18.916Z,7.63
2023-01-31T03:39:46.103Z,6.73
2023-01-31T03:42:18.617Z,5.60
2023-01-31T03:45:02.835Z,5.33
2023-01-31T03:47:32.503Z,5.40
2023-01-31T03:50:03.233Z,5.57
2023-01-31T03:52:32.579Z,5.13
2023-01-31T03:55:02.599Z,5.23
2023-01-31T03:57:34.350Z,5.60
2023-01-31T04:00:04.510Z,5.00
2023-01-31T04:02:37.133Z,5.30
2023-01-31T04:05:19.860Z,5.13
2023-01-31T04:07:47.161Z,5.80
2023-01-31T04:10:16.471Z,5.23
2023-01-31T04:12:43.680Z,5.10
2023-01-31T04:15:11.700Z,6.27
2023-01-31T04:17:39.125Z,5.03
2023-01-31T04:20:06.970Z,5.00
2023-01-31T04:22:34.167Z,4.63
2023-01-31T04:25:02.046Z,4.80
2023-01-31T04:27:29.232Z,4.73
2023-01-31T04:29:56.364Z,4.27
2023-01-31T04:32:23.553Z,5.03
2023-01-31T04:34:50.717Z,4.73
2023-01-31T04:37:17.903Z,5.10
2023-01-31T04:39:45.068Z,4.57
2023-01-31T04:42:12.209Z,5.43
2023-01-31T04:44:39.335Z,4.47
2023-01-31T04:47:06.475Z,5.13
2023-01-31T04:49:33.610Z,4.60
2023-01-31T04:52:00.757Z,4.57
2023-01-31T04:54:27.894Z,5.50
2023-01-31T04:56:54.999Z,5.07
2023-01-31T04:59:22.135Z,5.57
2023-01-31T05:01:49.257Z,4.93
2023-01-31T05:04:16.428Z,5.00
2023-01-31T05:06:43.548Z,4.77
2023-01-31T05:09:11.478Z,4.90
2023-01-31T05:11:38.626Z,5.23
2023-01-31T05:14:05.755Z,4.43
2023-01-31T05:16:32.942Z,4.67
2023-01-31T05:19:00.089Z,4.97
2023-01-31T05:21:27.407Z,4.63
2023-01-31T05:23:54.566Z,5.90
2023-01-31T05:26:21.791Z,5.17
2023-01-31T05:28:48.949Z,5.27
2023-01-31T05:31:16.345Z,5.90
2023-01-31T05:33:44.488Z,6.17
2023-01-31T05:36:11.677Z,4.90
2023-01-31T05:38:38.817Z,5.83
2023-01-31T05:41:05.947Z,5.80
2023-01-31T05:43:34.952Z,5.20
2023-01-31T05:46:03.813Z,5.10
2023-01-31T05:48:31.206Z,5.87
2023-01-31T05:50:58.345Z,7.67
2023-01-31T05:53:25.543Z,5.73
2023-01-31T05:55:53.392Z,4.23
2023-01-31T05:58:20.511Z,5.13
2023-01-31T06:00:47.629Z,5.40
2023-01-31T06:03:14.858Z,4.77
2023-01-31T06:05:42.011Z,4.50
2023-01-31T06:08:10.485Z,4.90
2023-01-31T06:10:37.636Z,5.57
2023-01-31T06:13:04.774Z,5.70
2023-01-31T06:15:32.227Z,4.80
2023-01-31T06:17:59.988Z,4.67
2023-01-31T06:20:27.523Z,5.47
2023-01-31T06:22:54.655Z,4.90
2023-01-31T06:25:22.293Z,5.67
2023-01-31T06:27:49.668Z,5.13
2023-01-31T06:30:16.884Z,4.97
2023-01-31T06:32:44.045Z,5.30
2023-01-31T06:35:11.192Z,3.97
2023-01-31T06:37:38.312Z,3.93
2023-01-31T06:40:05.694Z,4.57
2023-01-31T06:42:32.841Z,4.07
2023-01-31T06:44:59.996Z,4.23
2023-01-31T06:47:27.116Z,4.00
2023-01-31T06:49:54.535Z,4.07
2023-01-31T06:52:21.657Z,4.50
2023-01-31T06:54:48.785Z,4.17
2023-01-31T06:57:15.889Z,4.47
2023-01-31T06:59:43.023Z,4.13
2023-01-31T07:02:11.074Z,4.80
2023-01-31T07:04:38.257Z,4.70
2023-01-31T07:07:05.483Z,4.00
2023-01-31T07:09:32.636Z,4.40
2023-01-31T07:11:59.769Z,5.07
2023-01-31T07:14:26.924Z,4.70
2023-01-31T07:16:54.065Z,4.40
2023-01-31T07:19:21.222Z,4.57
2023-01-31T07:21:49.233Z,4.80
2023-01-31T07:24:16.892Z,4.60
2023-01-31T07:26:44.113Z,4.27
2023-01-31T07:29:12.168Z,4.43
2023-01-31T07:31:40.002Z,5.20
2023-01-31T07:34:07.177Z,6.17
2023-01-31T07:36:34.395Z,5.13
2023-01-31T07:39:01.971Z,5.70
2023-01-31T07:41:29.180Z,6.10
2023-01-31T07:43:56.307Z,6.53
2023-01-31T07:46:23.544Z,7.00
2023-01-31T07:48:50.694Z,6.93
2023-01-31T07:51:17.887Z,6.73
2023-01-31T07:53:45.009Z,6.90
2023-01-31T07:56:13.741Z,7.03
2023-01-31T07:58:41.575Z,7.50
2023-01-31T08:01:27.461Z,7.57
2023-01-31T08:03:54.602Z,8.57
2023-01-31T08:06:21.844Z,7.23
2023-01-31T08:08:48.964Z,8.37
2023-01-31T08:11:16.216Z,8.00
2023-01-31T08:13:43.326Z,8.63
2023-01-31T08:16:10.946Z,8.60
2023-01-31T08:18:38.816Z,8.27
2023-01-31T08:21:06.795Z,8.83
2023-01-31T08:23:34.026Z,8.43
2023-01-31T08:26:05.563Z,8.83
2023-01-31T08:28:34.455Z,8.80
2023-01-31T08:31:08.904Z,8.50
2023-01-31T08:33:37.638Z,8.47
2023-01-31T08:36:11.600Z,8.60
2023-01-31T08:38:38.846Z,9.13
2023-01-31T08:41:06.052Z,7.27
2023-01-31T08:43:42.252Z,8.97
2023-01-31T08:46:19.952Z,7.50
2023-01-31T08:48:47.575Z,8.63
2023-01-31T08:51:15.119Z,8.23
2023-01-31T08:53:44.568Z,7.90
2023-01-31T08:56:12.608Z,8.60
2023-01-31T08:58:41.977Z,9.10
2023-01-31T09:01:11.050Z,8.53
2023-01-31T09:03:38.714Z,9.37
2023-01-31T09:06:07.393Z,9.40
2023-01-31T09:08:34.828Z,9.10
2023-01-31T09:11:01.977Z,8.33
2023-01-31T09:13:30.200Z,8.80
2023-01-31T09:16:00.316Z,8.73
2023-01-31T09:18:27.808Z,8.27
2023-01-31T09:20:54.980Z,8.33
2023-01-31T09:23:22.212Z,8.87
2023-01-31T09:25:53.355Z,8.00
2023-01-31T09:28:20.568Z,7.80
2023-01-31T09:30:47.728Z,8.40
2023-01-31T09:33:15.060Z,8.63
2023-01-31T09:35:42.184Z,8.40
2023-01-31T09:38:09.302Z,8.83
2023-01-31T09:40:40.486Z,8.13
2023-01-31T09:43:10.884Z,8.93
2023-01-31T09:45:40.017Z,9.07
2023-01-31T09:48:07.848Z,7.40
2023-01-31T09:50:34.977Z,8.77
2023-01-31T09:53:02.291Z,8.00
2023-01-31T09:56:01.691Z,8.60
2023-01-31T09:58:34.640Z,8.63
2023-01-31T10:01:01.766Z,8.30
2023-01-31T10:03:38.086Z,7.87
2023-01-31T10:06:14.367Z,8.50
2023-01-31T10:08:51.286Z,8.77
2023-01-31T10:11:36.501Z,9.03
2023-01-31T10:14:20.074Z,7.77
2023-01-31T10:16:55.772Z,7.97
2023-01-31T10:19:26.383Z,8.00
2023-01-31T10:22:00.707Z,7.27
2023-01-31T10:24:34.674Z,6.50
2023-01-31T10:27:04.543Z,5.90
2023-01-31T10:29:34.285Z,5.50
2023-01-31T10:32:04.886Z,5.17
2023-01-31T10:34:39.669Z,5.07
2023-01-31T10:37:10.722Z,5.30
2023-01-31T10:39:55.009Z,5.00
2023-01-31T10:42:33.825Z,4.80
2023-01-31T10:45:04.095Z,4.33
2023-01-31T10:47:35.650Z,4.47
2023-01-31T10:50:05.729Z,4.80
2023-01-31T10:52:47.537Z,5.10
2023-01-31T10:55:31.521Z,4.80
2023-01-31T10:57:59.152Z,5.23
2023-01-31T11:00:31.280Z,4.93
2023-01-31T11:02:58.808Z,4.97
2023-01-31T11:05:27.381Z,4.83
2023-01-31T11:07:55.057Z,4.67
2023-01-31T11:10:24.106Z,4.70
2023-01-31T11:13:02.074Z,4.97
2023-01-31T11:15:30.315Z,5.83
2023-01-31T11:18:01.767Z,5.73
2023-01-31T11:20:33.748Z,5.43
2023-01-31T11:23:01.940Z,4.70
2023-01-31T11:25:30.555Z,5.23
2023-01-31T11:27:59.749Z,5.30
2023-01-31T11:30:29.371Z,5.40
2023-01-31T11:32:56.775Z,5.33
2023-01-31T11:35:26.981Z,4.97
2023-01-31T11:37:54.353Z,5.37
2023-01-31T11:40:26.238Z,5.40
2023-01-31T11:42:54.185Z,5.40
2023-01-31T11:45:23.193Z,5.67
2023-01-31T11:47:51.881Z,5.37
2023-01-31T11:50:25.625Z,5.63
2023-01-31T11:52:55.900Z,5.77
2023-01-31T11:55:23.110Z,5.90
2023-01-31T11:57:55.315Z,5.43
2023-01-31T12:00:27.141Z,6.10
2023-01-31T12:03:09.203Z,5.77
2023-01-31T12:05:44.521Z,6.17
2023-01-31T12:08:29.074Z,5.17
2023-01-31T12:10:57.385Z,5.40
2023-01-31T12:13:24.952Z,6.07
2023-01-31T12:15:56.033Z,5.30
2023-01-31T12:18:43.587Z,5.20
2023-01-31T12:21:17.700Z,6.60
2023-01-31T12:23:51.721Z,6.10
2023-01-31T12:26:37.853Z,5.63
2023-01-31T12:29:17.623Z,6.23
2023-01-31T12:31:44.826Z,6.00
2023-01-31T12:34:32.267Z,6.33
2023-01-31T12:37:18.079Z,6.60
2023-01-31T12:39:51.242Z,6.80
2023-01-31T12:42:44.586Z,7.10
2023-01-31T12:45:30.504Z,6.20
2023-01-31T12:48:16.372Z,5.90
2023-01-31T12:50:48.492Z,6.07
2023-01-31T12:53:18.687Z,6.37
2023-01-31T12:56:00.736Z,5.90
2023-01-31T12:58:30.853Z,6.37
2023-01-31T13:00:57.991Z,5.57
2023-01-31T13:03:32.457Z,6.13
2023-01-31T13:06:03.327Z,5.47
2023-01-31T13:08:31.445Z,6.53
2023-01-31T13:11:19.732Z,5.30
2023-01-31T13:13:58.204Z,6.10
2023-01-31T13:16:43.413Z,5.70
2023-01-31T13:19:20.794Z,5.60
2023-01-31T13:21:49.511Z,5.30
2023-01-31T13:24:19.423Z,5.80
2023-01-31T13:26:52.836Z,6.13
2023-01-31T13:29:29.864Z,5.73
2023-01-31T13:31:57.021Z,6.20
2023-01-31T13:34:28.962Z,5.40
2023-01-31T13:36:59.209Z,5.13
2023-01-31T13:39:46.782Z,5.37
2023-01-31T13:42:18.159Z,5.80
2023-01-31T13:44:46.916Z,6.57
2023-01-31T13:47:26.262Z,6.00
2023-01-31T13:49:56.515Z,5.53
2023-01-31T13:52:26.758Z,5.40
2023-01-31T13:54:57.659Z,5.70
2023-01-31T13:57:30.247Z,5.80
2023-01-31T14:00:01.115Z,4.83
2023-01-31T14:02:28.426Z,4.80
2023-01-31T14:05:05.094Z,5.37
2023-01-31T14:07:32.312Z,6.07
2023-01-31T14:09:59.392Z,5.97
2023-01-31T14:12:31.778Z,5.20
2023-01-31T14:14:59.052Z,5.53
2023-01-31T14:17:29.267Z,5.67
2023-01-31T14:19:56.731Z,5.30
2023-01-31T14:22:41.465Z,4.27
2023-01-31T14:25:11.997Z,4.40
2023-01-31T14:27:40.953Z,5.10
2023-01-31T14:30:08.434Z,4.63
2023-01-31T14:32:38.660Z,5.43
2023-01-31T14:35:26.046Z,4.73
2023-01-31T14:38:04.579Z,4.40
2023-01-31T14:40:39.248Z,4.20
2023-01-31T14:43:06.403Z,5.17
2023-01-31T14:45:33.616Z,5.23
2023-01-31T14:48:15.142Z,5.13
2023-01-31T14:50:52.298Z,4.93
2023-01-31T14:53:19.404Z,5.40
2023-01-31T14:55:52.485Z,5.20
2023-01-31T14:58:21.614Z,4.93
2023-01-31T15:01:00.920Z,5.33
2023-01-31T15:03:28.231Z,4.00
2023-01-31T15:05:57.371Z,5.20
2023-01-31T15:08:24.474Z,5.47
2023-01-31T15:11:10.467Z,5.07
2023-01-31T15:13:49.594Z,5.40
2023-01-31T15:16:19.760Z,5.13
2023-01-31T15:18:48.057Z,5.60
2023-01-31T15:21:20.671Z,5.67
2023-01-31T15:23:48.750Z,5.60
2023-01-31T15:26:17.426Z,5.60
2023-01-31T15:28:45.022Z,5.50
2023-01-31T15:31:24.210Z,5.90
2023-01-31T15:33:52.727Z,5.70
2023-01-31T15:36:43.059Z,5.13
2023-01-31T15:39:20.964Z,5.10
2023-01-31T15:41:48.109Z,5.40
2023-01-31T15:44:22.951Z,5.73
2023-01-31T15:46:54.200Z,6.10
2023-01-31T15:49:38.030Z,6.17
2023-01-31T15:52:09.368Z,5.80
2023-01-31T15:54:36.885Z,6.53
2023-01-31T15:57:05.606Z,5.70
2023-01-31T15:59:34.336Z,6.00
2023-01-31T16:02:02.429Z,6.33
2023-01-31T16:04:29.822Z,5.93
2023-01-31T16:06:57.374Z,5.70
2023-01-31T16:09:26.376Z,5.80
2023-01-31T16:11:54.275Z,5.03
2023-01-31T16:14:22.520Z,5.87
2023-01-31T16:16:52.017Z,5.40
2023-01-31T16:19:28.955Z,5.40
2023-01-31T16:21:56.454Z,5.77
2023-01-31T16:24:23.998Z,6.00
2023-01-31T16:26:56.984Z,5.60
2023-01-31T16:29:26.070Z,5.20
2023-01-31T16:31:54.891Z,5.27
2023-01-31T16:34:32.976Z,5.77
2023-01-31T16:37:04.160Z,5.37
2023-01-31T16:39:31.304Z,5.73
2023-01-31T16:42:00.162Z,4.60
2023-01-31T16:44:29.436Z,6.00
2023-01-31T16:46:56.675Z,4.93
2023-01-31T16:49:25.375Z,5.10
2023-01-31T16:52:12.748Z,5.00
2023-01-31T16:54:55.758Z,5.40
2023-01-31T16:57:22.911Z,5.53
2023-01-31T16:59:50.926Z,5.40
2023-01-31T17:02:25.979Z,5.30
2023-01-31T17:04:54.560Z,5.07
2023-01-31T17:07:23.101Z,4.93
2023-01-31T17:09:54.088Z,4.90
2023-01-31T17:12:26.491Z,4.03
2023-01-31T17:14:59.539Z,4.50
2023-01-31T17:17:28.844Z,3.87
2023-01-31T17:19:56.084Z,4.30
2023-01-31T17:22:23.231Z,4.07
2023-01-31T17:24:51.060Z,4.40
2023-01-31T17:27:19.224Z,4.27
2023-01-31T17:29:49.380Z,3.70
2023-01-31T17:32:17.855Z,3.23
2023-01-31T17:34:45.901Z,3.27
2023-01-31T17:37:16.098Z,3.50
2023-01-31T17:39:43.631Z,3.93
2023-01-31T17:42:16.501Z,3.87
2023-01-31T17:44:43.623Z,4.03
2023-01-31T17:47:10.768Z,3.70
2023-01-31T17:49:37.900Z,4.10
2023-01-31T17:52:05.511Z,3.80
2023-01-31T17:54:32.647Z,3.57
2023-01-31T17:56:59.776Z,3.60
2023-01-31T17:59:27.685Z,3.90
2023-01-31T18:01:55.184Z,3.57
2023-01-31T18:04:22.443Z,3.70
2023-01-31T18:06:49.627Z,3.50
2023-01-31T18:09:18.599Z,4.17
2023-01-31T18:11:46.842Z,3.97
2023-01-31T18:14:15.135Z,3.77
2023-01-31T18:16:42.330Z,3.53
2023-01-31T18:19:11.400Z,3.70
2023-01-31T18:21:41.450Z,3.47
2023-01-31T18:24:14.233Z,3.80
2023-01-31T18:26:41.676Z,3.70
2023-01-31T18:29:09.687Z,3.87
2023-01-31T18:31:36.848Z,3.60
2023-01-31T18:34:04.005Z,3.93
2023-01-31T18:36:31.144Z,3.73
2023-01-31T18:38:58.239Z,3.87
2023-01-31T18:41:25.436Z,3.60
2023-01-31T18:43:52.567Z,3.60
2023-01-31T18:46:21.140Z,3.40
2023-01-31T18:48:48.395Z,3.30
2023-01-31T18:51:16.093Z,3.10
2023-01-31T18:53:46.784Z,3.33
2023-01-31T18:56:18.848Z,3.03
2023-01-31T18:58:46.645Z,3.10
2023-01-31T19:01:13.796Z,2.83
2023-01-31T19:03:41.835Z,3.10
2023-01-31T19:06:13.383Z,3.27
2023-01-31T19:08:40.668Z,3.53
2023-01-31T19:11:08.830Z,3.50
2023-01-31T19:13:36.443Z,3.63
2023-01-31T19:16:04.734Z,3.10
2023-01-31T19:18:31.930Z,3.27
2023-01-31T19:20:59.144Z,3.03
2023-01-31T19:23:26.604Z,2.70
2023-01-31T19:25:54.001Z,3.23
2023-01-31T19:28:23.205Z,2.90
2023-01-31T19:30:51.841Z,2.70
2023-01-31T19:33:19.889Z,2.50
2023-01-31T19:35:47.150Z,2.80
2023-01-31T19:38:14.494Z,2.50
2023-01-31T19:40:43.291Z,2.40
2023-01-31T19:43:10.465Z,2.60
2023-01-31T19:45:37.712Z,2.43
2023-01-31T19:48:05.017Z,2.50
2023-01-31T19:50:32.168Z,2.40
2023-01-31T19:52:59.312Z,2.53
2023-01-31T19:55:26.464Z,2.40
2023-01-31T19:57:53.719Z,2.57
2023-01-31T20:00:21.062Z,2.20
2023-01-31T20:02:48.273Z,2.40
2023-01-31T20:05:15.511Z,2.87
2023-01-31T20:07:42.689Z,2.40
2023-01-31T20:10:11.455Z,2.23
2023-01-31T20:12:38.663Z,2.40
2023-01-31T20:15:06.641Z,2.20
2023-01-31T20:17:34.420Z,2.17
2023-01-31T20:20:01.705Z,2.70
2023-01-31T20:22:29.358Z,2.60
2023-01-31T20:24:57.159Z,2.90
2023-01-31T20:27:24.988Z,2.90
2023-01-31T20:29:52.162Z,2.90
2023-01-31T20:32:19.572Z,3.07
2023-01-31T20:34:46.740Z,2.80
2023-01-31T20:37:13.907Z,3.00
2023-01-31T20:39:41.051Z,2.90
2023-01-31T20:42:10.512Z,3.10
2023-01-31T20:44:38.219Z,3.30
2023-01-31T20:47:05.864Z,3.60
2023-01-31T20:49:33.125Z,3.20
2023-01-31T20:52:00.328Z,3.70
2023-01-31T20:54:27.500Z,3.50
2023-01-31T20:56:54.630Z,3.23
2023-01-31T20:59:21.810Z,3.27
2023-01-31T21:01:49.017Z,3.43
2023-01-31T21:04:16.296Z,3.33
2023-01-31T21:06:43.483Z,3.30
2023-01-31T21:09:10.674Z,3.20
2023-01-31T21:11:37.843Z,3.00
2023-01-31T21:14:05.020Z,2.97
2023-01-31T21:16:32.480Z,3.07
2023-01-31T21:18:59.659Z,3.00
2023-01-31T21:21:26.801Z,2.90
2023-01-31T21:23:55.013Z,3.03
2023-01-31T21:26:24.327Z,2.83
2023-01-31T21:28:52.894Z,3.10
2023-01-31T21:31:21.247Z,2.83
2023-01-31T21:33:49.665Z,3.40
2023-01-31T21:36:18.244Z,2.60
2023-01-31T21:38:45.658Z,2.97
2023-01-31T21:41:32.222Z,3.17
2023-01-31T21:43:59.796Z,3.37
2023-01-31T21:46:27.029Z,3.17
2023-01-31T21:48:54.753Z,3.10
2023-01-31T21:51:24.529Z,2.97
2023-01-31T21:53:52.027Z,2.83
2023-01-31T21:56:20.455Z,3.00
2023-01-31T21:58:47.611Z,2.90
2023-01-31T22:01:18.147Z,3.07
2023-01-31T22:03:48.159Z,2.80
2023-01-31T22:06:16.082Z,2.60
2023-01-31T22:08:43.613Z,2.63
2023-01-31T22:11:14.559Z,2.70
2023-01-31T22:13:45.774Z,3.10
2023-01-31T22:16:13.416Z,2.93
2023-01-31T22:18:41.092Z,3.00
2023-01-31T22:21:10.359Z,3.27
2023-01-31T22:23:38.322Z,2.90
2023-01-31T22:26:09.707Z,3.13
2023-01-31T22:28:37.207Z,2.93
2023-01-31T22:31:05.000Z,3.30
2023-01-31T22:33:33.191Z,3.57
2023-01-31T22:36:00.458Z,3.30
2023-01-31T22:38:28.193Z,3.50
2023-01-31T22:40:59.300Z,3.67
2023-01-31T22:43:26.832Z,3.70
2023-01-31T22:45:55.236Z,3.63
2023-01-31T22:48:23.904Z,3.73
2023-01-31T22:50:58.052Z,3.97
2023-01-31T22:53:29.767Z,4.07
2023-01-31T22:56:00.769Z,4.10
2023-01-31T22:58:27.976Z,4.20
2023-01-31T23:00:55.119Z,3.57
2023-01-31T23:03:22.442Z,4.37
2023-01-31T23:05:49.588Z,4.10
2023-01-31T23:08:16.836Z,4.10
2023-01-31T23:10:44.447Z,4.33
2023-01-31T23:13:11.970Z,4.60
2023-01-31T23:15:39.623Z,4.30
2023-01-31T23:18:07.144Z,4.40
2023-01-31T23:20:34.356Z,4.87
2023-01-31T23:23:01.541Z,4.57
2023-01-31T23:25:32.393Z,4.83
2023-01-31T23:28:00.611Z,4.80
2023-01-31T23:30:27.793Z,5.20
2023-01-31T23:32:54.948Z,4.70
2023-01-31T23:35:22.102Z,5.10
2023-01-31T23:37:49.355Z,5.10
2023-01-31T23:40:16.729Z,5.10
2023-01-31T23:42:43.864Z,4.40
2023-01-31T23:45:11.271Z,5.03
2023-01-31T23:47:42.663Z,4.93
2023-01-31T23:50:10.761Z,4.40
2023-01-31T23:52:37.897Z,4.83
2023-01-31T23:55:05.350Z,4.87
2023-01-31T23:57:32.475Z,4.93
2023-01-31T23:59:59.675Z,5.13
